Time;durP1;ratioP1;P1;durP2;ratioP2;P2;SDS_P1;SDS_P2;PMS_P1;PMS_P2;Temp;Humidity;BMP_temperature;BMP_pressure;BME280_temperature;BME280_humidity;BME280_pressure;Samples;Min_cycle;Max_cycle;Signal;HPM_P1;HPM_P2
2021/05/19 00:01:13;;;;;;;10.27;9.48;;;7.20;82.40;;;;;;5296955;27;20044;-73
2021/05/19 00:03:45;;;;;;;10.25;9.45;;;7.20;83.20;;;;;;5284977;28;20052;-73
2021/05/19 00:06:17;;;;;;;10.30;9.50;;;7.10;83.90;;;;;;5281072;28;20179;-73
2021/05/19 00:08:49;;;;;;;10.82;9.90;;;7.10;83.80;;;;;;5287962;27;20058;-73
2021/05/19 00:11:21;;;;;;;10.10;9.30;;;7.00;83.90;;;;;;5273323;28;20056;-72
2021/05/19 00:13:53;;;;;;;10.00;9.20;;;6.90;84.20;;;;;;5282333;28;20084;-72
2021/05/19 00:16:25;;;;;;;10.18;9.38;;;7.00;84.50;;;;;;5284491;27;20040;-72
2021/05/19 00:18:57;;;;;;;10.20;9.43;;;7.10;84.20;;;;;;5284648;28;20039;-72
2021/05/19 00:21:29;;;;;;;10.15;9.35;;;7.20;84.40;;;;;;5283360;28;20107;-72
2021/05/19 00:24:02;;;;;;;10.45;9.55;;;7.20;84.50;;;;;;5285605;28;20109;-73
2021/05/19 00:26:34;;;;;;;10.27;9.48;;;7.20;85.00;;;;;;5283842;28;20110;-73
2021/05/19 00:29:11;;;;;;;10.15;9.38;;;7.30;84.60;;;;;;5284583;28;20032;-72
2021/05/19 00:31:44;;;;;;;10.20;9.40;;;7.30;85.10;;;;;;5282589;27;20035;-72
2021/05/19 00:34:16;;;;;;;10.43;9.52;;;7.30;84.80;;;;;;5284694;28;20058;-72
2021/05/19 00:36:49;;;;;;;10.50;9.60;;;7.30;84.80;;;;;;5282053;28;20569;-72
2021/05/19 00:39:21;;;;;;;10.10;9.30;;;7.40;84.50;;;;;;5283205;28;20035;-72
2021/05/19 00:41:53;;;;;;;10.10;9.30;;;7.40;83.80;;;;;;5281989;27;20047;-72
2021/05/19 00:44:24;;;;;;;10.32;9.23;;;7.40;83.20;;;;;;5283205;28;20116;-72
2021/05/19 00:46:56;;;;;;;10.45;9.65;;;7.50;82.00;;;;;;5284502;28;20044;-72
2021/05/19 00:49:29;;;;;;;10.15;9.35;;;7.50;82.70;;;;;;5281621;28;20136;-72
2021/05/19 00:52:02;;;;;;;10.20;9.40;;;7.50;82.90;;;;;;5282114;28;20085;-72
2021/05/19 00:54:34;;;;;;;10.43;9.52;;;7.60;82.70;;;;;;5282738;28;20062;-72
2021/05/19 00:57:06;;;;;;;10.40;9.60;;;7.60;83.10;;;;;;5283719;27;20122;-72
2021/05/19 00:59:39;;;;;;;10.45;9.65;;;7.60;83.20;;;;;;5299433;27;20077;-72
2021/05/19 01:02:13;;;;;;;10.88;9.98;;;7.70;83.00;;;;;;5279572;28;20040;-72
2021/05/19 01:04:46;;;;;;;10.60;9.80;;;7.60;82.30;;;;;;5285346;27;20127;-72
2021/05/19 01:07:34;;;;;;;10.73;9.85;;;7.60;82.40;;;;;;5282385;28;20058;-73
2021/05/19 01:10:07;;;;;;;10.98;10.18;;;7.60;82.20;;;;;;5284901;28;20039;-72
2021/05/19 01:12:39;;;;;;;10.70;9.90;;;7.50;83.10;;;;;;5285945;28;20048;-72
2021/05/19 01:15:13;;;;;;;10.60;9.80;;;7.50;82.90;;;;;;5279593;28;20129;-73
2021/05/19 01:17:46;;;;;;;10.52;9.73;;;7.50;82.60;;;;;;5283047;27;20502;-72
2021/05/19 01:20:18;;;;;;;10.73;9.93;;;7.60;82.40;;;;;;5281357;28;20040;-73
2021/05/19 01:22:51;;;;;;;10.88;10.07;;;7.60;82.40;;;;;;5282497;28;20047;-72
2021/05/19 01:25:23;;;;;;;10.73;9.90;;;7.60;82.50;;;;;;5284750;27;20183;-73
2021/05/19 01:27:59;;;;;;;10.88;10.07;;;7.50;82.10;;;;;;5281254;28;20052;-72
2021/05/19 01:30:34;;;;;;;10.57;9.77;;;7.50;82.20;;;;;;5297901;27;20472;-74
2021/05/19 01:33:06;;;;;;;10.75;9.95;;;7.50;82.10;;;;;;5248116;28;20043;-72
2021/05/19 01:35:39;;;;;;;11.07;10.13;;;7.40;82.60;;;;;;5298107;27;20127;-72
2021/05/19 01:38:13;;;;;;;11.15;10.15;;;7.40;82.70;;;;;;5283003;28;20047;-72
2021/05/19 01:40:45;;;;;;;11.00;10.20;;;7.40;83.00;;;;;;5280644;28;20052;-72
2021/05/19 01:43:17;;;;;;;10.60;9.80;;;7.40;82.70;;;;;;5280307;28;20056;-72
2021/05/19 01:46:01;;;;;;;10.73;9.93;;;7.40;81.10;;;;;;5285164;27;20055;-72
2021/05/19 01:48:34;;;;;;;10.73;9.82;;;7.30;81.40;;;;;;5268058;28;20047;-71
2021/05/19 01:51:06;;;;;;;10.52;9.73;;;7.30;81.50;;;;;;5279359;28;20051;-71
2021/05/19 01:53:39;;;;;;;10.45;9.65;;;7.30;81.60;;;;;;5282441;28;20048;-72
2021/05/19 01:56:11;;;;;;;10.38;9.57;;;7.40;81.20;;;;;;5280925;28;20131;-71
2021/05/19 01:58:44;;;;;;;10.90;10.10;;;7.40;81.00;;;;;;5284718;27;20044;-72
2021/05/19 02:01:17;;;;;;;10.60;9.80;;;7.50;81.20;;;;;;5279780;28;20431;-71
2021/05/19 02:03:51;;;;;;;10.80;9.90;;;7.50;80.80;;;;;;5280732;28;20055;-71
2021/05/19 02:06:23;;;;;;;10.48;9.68;;;7.50;80.70;;;;;;5280749;28;20050;-71
2021/05/19 02:08:55;;;;;;;10.30;9.50;;;7.40;80.90;;;;;;5278342;28;20054;-71
2021/05/19 02:11:29;;;;;;;9.90;9.20;;;7.50;80.90;;;;;;5282299;28;20039;-72
2021/05/19 02:14:01;;;;;;;10.30;9.40;;;7.40;79.90;;;;;;5265039;28;20096;-72
2021/05/19 02:16:34;;;;;;;10.20;9.45;;;7.40;79.80;;;;;;5280809;28;20503;-72
2021/05/19 02:19:09;;;;;;;10.10;9.40;;;7.40;80.00;;;;;;5283159;27;20031;-71
2021/05/19 02:21:49;;;;;;;10.00;9.30;;;7.50;80.30;;;;;;5264084;28;20042;-71
2021/05/19 02:24:22;;;;;;;10.38;9.57;;;7.40;80.10;;;;;;5279275;28;20126;-70
2021/05/19 02:26:57;;;;;;;10.27;9.48;;;7.50;80.20;;;;;;5281645;28;20036;-70
2021/05/19 02:29:32;;;;;;;10.40;9.60;;;7.50;80.10;;;;;;5297643;27;20546;-73
2021/05/19 02:32:04;;;;;;;10.38;9.57;;;7.50;80.30;;;;;;5278982;28;20040;-71
2021/05/19 02:34:37;;;;;;;10.32;9.52;;;7.40;80.90;;;;;;5279938;27;20155;-71
2021/05/19 02:37:10;;;;;;;10.52;9.73;;;7.40;80.40;;;;;;5280733;28;20039;-71
2021/05/19 02:39:42;;;;;;;10.38;9.57;;;7.30;80.70;;;;;;5279324;28;20138;-71
2021/05/19 02:42:14;;;;;;;10.43;9.63;;;7.30;81.00;;;;;;5280698;28;20502;-72
2021/05/19 02:44:47;;;;;;;10.05;9.35;;;7.40;81.20;;;;;;5281325;28;20032;-73
2021/05/19 02:47:19;;;;;;;10.27;9.48;;;7.30;80.80;;;;;;5281765;27;20480;-72
2021/05/19 02:49:51;;;;;;;10.65;9.85;;;7.30;80.60;;;;;;5279359;28;20032;-72
2021/05/19 02:52:23;;;;;;;10.50;9.70;;;7.30;81.20;;;;;;5277016;28;20036;-72
2021/05/19 02:54:56;;;;;;;10.93;10.10;;;7.30;80.80;;;;;;5295330;27;20052;-72
2021/05/19 02:57:28;;;;;;;10.65;9.85;;;7.40;81.10;;;;;;5280719;28;20075;-70
2021/05/19 03:00:00;;;;;;;10.10;9.30;;;7.30;80.90;;;;;;5281501;28;20105;-72
2021/05/19 03:02:32;;;;;;;10.35;9.55;;;7.30;80.90;;;;;;5279604;28;20104;-72
2021/05/19 03:05:06;;;;;;;10.50;9.68;;;7.30;81.00;;;;;;5279458;28;20537;-72
2021/05/19 03:07:38;;;;;;;10.35;9.55;;;7.30;80.90;;;;;;5272511;28;20097;-72
2021/05/19 03:10:11;;;;;;;10.38;9.57;;;7.40;81.00;;;;;;5280452;28;20043;-72
2021/05/19 03:12:43;;;;;;;10.65;9.85;;;7.40;80.80;;;;;;5280909;28;20039;-73
2021/05/19 03:15:16;;;;;;;10.45;9.65;;;7.40;80.50;;;;;;5279075;28;20104;-73
2021/05/19 03:17:48;;;;;;;10.50;9.70;;;7.30;82.00;;;;;;5281852;28;20636;-74
2021/05/19 03:20:20;;;;;;;10.60;9.80;;;7.30;81.80;;;;;;5278471;28;20521;-73
2021/05/19 03:22:52;;;;;;;10.50;9.60;;;7.30;81.30;;;;;;5279723;28;20441;-72
2021/05/19 03:25:24;;;;;;;10.70;9.90;;;7.20;81.10;;;;;;5296055;27;20482;-74
2021/05/19 03:27:57;;;;;;;10.30;9.50;;;7.20;81.30;;;;;;5280949;28;20581;-71
2021/05/19 03:30:30;;;;;;;10.23;9.27;;;7.10;81.50;;;;;;5279985;28;20751;-71
2021/05/19 03:33:03;;;;;;;10.90;10.10;;;7.00;81.30;;;;;;5279485;28;20805;-72
2021/05/19 03:35:35;;;;;;;10.75;9.95;;;7.10;81.70;;;;;;5281513;28;20047;-72
2021/05/19 03:38:07;;;;;;;11.02;10.23;;;7.00;81.90;;;;;;5281541;28;20039;-72
2021/05/19 03:40:39;;;;;;;11.20;10.30;;;7.00;82.10;;;;;;5278085;28;20089;-72
2021/05/19 03:43:11;;;;;;;11.02;10.23;;;7.00;81.80;;;;;;5280223;28;20040;-72
2021/05/19 03:45:43;;;;;;;10.90;10.10;;;7.00;81.60;;;;;;5279295;28;20043;-72
2021/05/19 03:48:19;;;;;;;11.00;10.20;;;6.90;82.50;;;;;;5281364;28;20130;-73
2021/05/19 03:50:51;;;;;;;10.95;10.15;;;6.90;82.50;;;;;;5281064;28;20088;-72
2021/05/19 03:53:24;;;;;;;10.80;10.00;;;6.80;83.00;;;;;;5282023;28;20046;-72
2021/05/19 03:55:56;;;;;;;10.70;9.90;;;6.80;83.50;;;;;;5280475;28;20040;-73
2021/05/19 03:58:28;;;;;;;10.38;9.57;;;6.80;83.60;;;;;;5280904;28;20044;-72
2021/05/19 04:01:00;;;;;;;10.40;9.60;;;6.70;84.00;;;;;;5280781;28;20040;-73
2021/05/19 04:03:32;;;;;;;10.63;9.82;;;6.80;83.70;;;;;;5278984;28;20070;-74
2021/05/19 04:06:04;;;;;;;10.70;9.90;;;6.70;83.70;;;;;;5280784;28;20051;-73
2021/05/19 04:08:42;;;;;;;10.60;9.80;;;6.70;84.20;;;;;;5280386;28;20047;-72
2021/05/19 04:11:14;;;;;;;10.32;9.43;;;6.70;84.10;;;;;;5269769;28;20093;-73
2021/05/19 04:13:46;;;;;;;10.63;9.82;;;6.70;83.80;;;;;;5280666;28;20495;-73
2021/05/19 04:16:18;;;;;;;10.80;10.00;;;6.70;84.10;;;;;;5279663;28;20044;-73
2021/05/19 04:18:50;;;;;;;10.93;10.13;;;6.70;82.50;;;;;;5278205;28;20047;-73
2021/05/19 04:21:22;;;;;;;10.70;9.90;;;6.60;83.00;;;;;;5268879;28;20086;-73
2021/05/19 04:23:54;;;;;;;11.98;10.90;;;6.50;83.30;;;;;;5280097;28;20418;-73
2021/05/19 04:26:26;;;;;;;29.20;20.55;;;6.60;83.40;;;;;;5279930;28;20089;-73
2021/05/19 04:28:58;;;;;;;11.18;10.27;;;6.70;82.90;;;;;;5281006;28;20043;-73
2021/05/19 04:31:31;;;;;;;10.77;9.88;;;6.80;82.50;;;;;;5279382;28;20571;-73
2021/05/19 04:34:03;;;;;;;10.70;9.90;;;6.80;82.60;;;;;;5279880;28;20537;-73
2021/05/19 04:36:35;;;;;;;10.10;9.40;;;6.80;82.40;;;;;;5278741;28;20470;-73
2021/05/19 04:39:07;;;;;;;10.18;9.30;;;6.90;82.10;;;;;;5280704;28;20444;-73
2021/05/19 04:41:39;;;;;;;10.70;9.90;;;6.90;81.90;;;;;;5269003;28;20052;-72
2021/05/19 04:44:11;;;;;;;10.63;9.82;;;6.90;82.20;;;;;;5266402;28;20043;-73
2021/05/19 04:46:43;;;;;;;10.50;9.70;;;6.90;82.30;;;;;;5282814;28;20043;-73
2021/05/19 04:49:15;;;;;;;10.20;9.40;;;7.00;82.30;;;;;;5284843;28;20096;-71
2021/05/19 04:51:47;;;;;;;10.35;9.55;;;7.00;82.30;;;;;;5279809;28;20088;-72
2021/05/19 04:54:19;;;;;;;10.30;9.50;;;7.00;82.10;;;;;;5281620;28;20102;-72
2021/05/19 04:56:51;;;;;;;9.60;8.90;;;7.00;81.40;;;;;;5283511;28;20469;-71
2021/05/19 04:59:23;;;;;;;9.95;9.18;;;7.00;81.30;;;;;;5292162;28;20061;-71
2021/05/19 05:01:57;;;;;;;9.73;9.02;;;7.00;80.90;;;;;;5295684;28;20078;-72
2021/05/19 05:04:29;;;;;;;9.30;8.55;;;7.00;81.10;;;;;;5294717;28;20044;-72
2021/05/19 05:07:01;;;;;;;9.27;8.57;;;6.90;81.00;;;;;;5280633;28;20642;-72
2021/05/19 05:09:33;;;;;;;9.18;8.48;;;7.00;81.10;;;;;;5284490;28;20444;-73
2021/05/19 05:12:06;;;;;;;9.15;8.45;;;7.00;80.80;;;;;;5282399;28;20051;-72
2021/05/19 05:14:38;;;;;;;9.02;8.23;;;6.90;81.10;;;;;;5283050;28;20457;-71
2021/05/19 05:17:10;;;;;;;8.80;8.10;;;6.90;81.20;;;;;;5282425;28;20477;-72
2021/05/19 05:19:42;;;;;;;9.10;8.40;;;6.90;80.70;;;;;;5282952;28;20070;-72
2021/05/19 05:22:14;;;;;;;9.10;8.40;;;6.90;80.30;;;;;;5282237;27;20051;-73
2021/05/19 05:24:46;;;;;;;9.20;8.50;;;6.80;79.80;;;;;;5282778;28;20039;-73
2021/05/19 05:27:18;;;;;;;9.10;8.40;;;6.80;79.90;;;;;;5279608;28;20092;-73
2021/05/19 05:29:50;;;;;;;9.75;8.95;;;6.70;79.40;;;;;;5281224;28;20051;-72
2021/05/19 05:32:23;;;;;;;9.20;8.50;;;6.60;78.00;;;;;;5281110;28;20048;-72
2021/05/19 05:34:55;;;;;;;8.90;8.20;;;6.50;78.60;;;;;;5283054;28;20044;-72
2021/05/19 05:37:27;;;;;;;8.90;8.20;;;6.50;78.90;;;;;;5280778;28;20419;-74
2021/05/19 05:40:00;;;;;;;8.93;8.23;;;6.30;78.30;;;;;;5258278;28;20043;-72
2021/05/19 05:42:36;;;;;;;9.00;8.30;;;6.30;78.30;;;;;;5279326;28;20487;-72
2021/05/19 05:45:08;;;;;;;9.18;8.38;;;6.20;78.80;;;;;;5280001;27;20043;-73
2021/05/19 05:47:40;;;;;;;8.70;8.00;;;6.10;79.00;;;;;;5282881;28;20517;-74
2021/05/19 05:50:12;;;;;;;8.80;8.10;;;6.00;79.70;;;;;;5275385;28;20054;-73
2021/05/19 05:52:45;;;;;;;9.00;8.30;;;6.00;79.00;;;;;;5283253;28;20078;-73
2021/05/19 05:55:17;;;;;;;9.30;8.60;;;6.00;78.60;;;;;;5279936;28;20048;-74
2021/05/19 05:57:50;;;;;;;9.10;8.30;;;5.90;79.10;;;;;;5280645;28;20086;-74
2021/05/19 06:00:22;;;;;;;8.55;7.85;;;5.80;78.80;;;;;;5294986;27;20659;-74
2021/05/19 06:02:55;;;;;;;8.10;7.50;;;5.70;79.20;;;;;;5279852;28;20052;-74
2021/05/19 06:05:27;;;;;;;8.55;7.85;;;5.70;79.00;;;;;;5282913;28;20055;-73
2021/05/19 06:08:01;;;;;;;8.20;7.60;;;5.70;79.30;;;;;;5281165;28;20050;-74
2021/05/19 06:10:33;;;;;;;8.27;7.65;;;5.60;78.60;;;;;;5277722;28;20522;-74
2021/05/19 06:13:06;;;;;;;7.80;7.20;;;5.60;78.90;;;;;;5283403;28;20043;-73
2021/05/19 06:15:38;;;;;;;8.35;7.65;;;5.50;79.50;;;;;;5280061;28;20044;-73
2021/05/19 06:18:11;;;;;;;7.80;7.20;;;5.60;78.80;;;;;;5280967;28;20045;-71
2021/05/19 06:20:43;;;;;;;7.75;7.15;;;5.50;78.70;;;;;;5292514;27;20514;-70
2021/05/19 06:23:15;;;;;;;7.78;7.18;;;5.40;79.50;;;;;;5294545;28;20043;-70
2021/05/19 06:25:50;;;;;;;7.78;7.18;;;5.40;79.00;;;;;;5293117;28;20561;-71
2021/05/19 06:28:25;;;;;;;8.45;7.75;;;5.40;79.60;;;;;;5296130;28;20032;-70
2021/05/19 06:30:58;;;;;;;8.05;7.25;;;5.40;79.30;;;;;;5296134;28;20575;-69
2021/05/19 06:33:30;;;;;;;8.75;7.95;;;5.30;80.00;;;;;;5293536;28;20045;-71
2021/05/19 06:36:07;;;;;;;7.80;7.20;;;5.30;79.60;;;;;;5292549;28;20043;-71
2021/05/19 06:38:39;;;;;;;7.78;7.07;;;5.30;79.50;;;;;;5291781;28;20663;-71
2021/05/19 06:41:11;;;;;;;7.50;6.90;;;5.20;80.00;;;;;;5271168;28;20048;-71
2021/05/19 06:43:43;;;;;;;7.60;7.00;;;5.20;79.80;;;;;;5290183;28;20050;-71
2021/05/19 06:46:15;;;;;;;8.10;7.50;;;5.20;80.10;;;;;;5289635;28;20082;-72
2021/05/19 06:48:50;;;;;;;7.85;7.15;;;5.30;79.80;;;;;;5291085;28;20039;-71
2021/05/19 06:51:25;;;;;;;7.63;7.03;;;5.30;80.00;;;;;;5289232;28;20099;-70
2021/05/19 06:54:00;;;;;;;7.50;6.90;;;5.40;80.90;;;;;;5291996;28;20732;-70
2021/05/19 06:56:34;;;;;;;7.85;7.25;;;5.40;80.40;;;;;;5286378;28;20052;-71
2021/05/19 06:59:06;;;;;;;7.90;7.30;;;5.50;80.00;;;;;;5291517;28;20043;-71
2021/05/19 07:01:39;;;;;;;8.25;7.55;;;5.50;80.40;;;;;;5291492;28;20044;-70
2021/05/19 07:04:17;;;;;;;8.10;7.50;;;5.50;80.50;;;;;;5294892;28;20044;-70
2021/05/19 07:06:50;;;;;;;8.15;7.45;;;5.60;80.30;;;;;;5285708;28;20097;-71
2021/05/19 07:09:25;;;;;;;12.52;11.23;;;5.70;81.00;;;;;;5294473;28;20039;-70
2021/05/19 07:11:58;;;;;;;12.00;10.88;;;5.70;81.40;;;;;;5292047;28;20035;-70
2021/05/19 07:14:44;;;;;;;8.63;7.93;;;5.80;82.00;;;;;;5287837;28;20085;-70
2021/05/19 07:17:19;;;;;;;16.25;14.70;;;5.80;81.50;;;;;;5295601;28;20534;-71
2021/05/19 07:19:56;;;;;;;9.02;8.32;;;5.90;82.40;;;;;;5296658;28;20059;-71
2021/05/19 07:22:30;;;;;;;8.70;8.00;;;5.90;81.70;;;;;;5296110;28;20051;-69
2021/05/19 07:25:09;;;;;;;8.55;7.85;;;6.00;81.90;;;;;;5297015;28;20023;-71
2021/05/19 07:27:42;;;;;;;8.20;7.60;;;6.00;80.70;;;;;;5296911;28;20068;-71
2021/05/19 07:30:22;;;;;;;8.30;7.63;;;6.00;80.90;;;;;;5296044;28;20044;-71
2021/05/19 07:32:57;;;;;;;8.80;8.10;;;6.00;80.60;;;;;;5297467;28;20039;-71
2021/05/19 07:35:31;;;;;;;8.60;7.90;;;6.00;80.90;;;;;;5294116;28;20112;-71
2021/05/19 07:38:11;;;;;;;8.43;7.72;;;6.00;81.00;;;;;;5294782;28;20565;-70
2021/05/19 07:40:45;;;;;;;8.07;7.35;;;6.10;80.70;;;;;;5288370;28;20043;-71
2021/05/19 07:43:20;;;;;;;7.88;7.28;;;6.10;80.50;;;;;;5295690;28;20028;-69
2021/05/19 07:45:52;;;;;;;7.95;7.25;;;6.10;80.80;;;;;;5294397;28;20036;-70
2021/05/19 07:48:26;;;;;;;7.85;7.18;;;6.10;80.40;;;;;;5291671;28;20097;-70
2021/05/19 07:50:57;;;;;;;8.20;7.50;;;6.20;80.00;;;;;;5286977;28;20046;-70
2021/05/19 07:53:28;;;;;;;7.60;7.00;;;6.10;80.60;;;;;;5279258;28;20027;-70
2021/05/19 07:56:14;;;;;;;8.05;7.35;;;6.00;79.60;;;;;;5278665;28;20122;-70
2021/05/19 07:58:58;;;;;;;7.80;7.18;;;5.90;81.00;;;;;;5281128;28;20043;-71
2021/05/19 08:04:02;;;;;;;8.80;8.10;;;5.80;80.70;;;;;;5280011;28;20498;-70
2021/05/19 08:06:34;;;;;;;8.68;7.97;;;5.80;80.30;;;;;;5285281;28;20030;-70
2021/05/19 08:09:06;;;;;;;8.70;7.90;;;5.70;81.10;;;;;;5282463;28;20032;-70
2021/05/19 08:11:40;;;;;;;8.48;7.78;;;5.70;81.00;;;;;;5285149;28;20047;-71
2021/05/19 08:14:11;;;;;;;8.35;7.65;;;5.70;80.70;;;;;;5281581;28;20038;-72
2021/05/19 08:16:42;;;;;;;8.10;7.40;;;5.70;80.70;;;;;;5280460;28;20044;-71
2021/05/19 08:19:13;;;;;;;8.27;7.57;;;5.70;81.20;;;;;;5279862;28;20047;-71
2021/05/19 08:21:45;;;;;;;8.43;7.72;;;5.70;81.20;;;;;;5297622;28;20024;-71
2021/05/19 08:24:24;;;;;;;8.32;7.63;;;5.60;80.80;;;;;;5296300;28;20035;-71
2021/05/19 08:26:59;;;;;;;8.10;7.47;;;5.60;80.60;;;;;;5283251;28;20043;-71
2021/05/19 08:29:32;;;;;;;8.40;7.70;;;5.50;81.30;;;;;;5289564;28;20514;-71
2021/05/19 08:32:06;;;;;;;8.35;7.53;;;5.60;81.30;;;;;;5296508;28;20040;-71
2021/05/19 08:34:43;;;;;;;8.52;7.75;;;5.70;80.90;;;;;;5278351;28;20115;-71
2021/05/19 08:37:16;;;;;;;8.27;7.57;;;5.60;81.20;;;;;;5295140;27;20168;-71
2021/05/19 08:39:48;;;;;;;8.80;8.10;;;5.70;81.30;;;;;;5284190;28;20567;-72
2021/05/19 08:42:23;;;;;;;7.85;7.25;;;5.60;80.70;;;;;;5282093;28;20540;-71
2021/05/19 08:44:56;;;;;;;8.30;7.60;;;5.60;80.80;;;;;;5293750;28;20062;-71
2021/05/19 08:47:30;;;;;;;8.38;7.68;;;5.60;81.50;;;;;;5282565;28;20036;-72
2021/05/19 08:50:05;;;;;;;8.25;7.55;;;5.70;80.90;;;;;;5280476;28;20040;-73
2021/05/19 08:52:41;;;;;;;8.00;7.40;;;5.60;81.10;;;;;;5286360;28;20096;-71
2021/05/19 08:55:19;;;;;;;8.57;7.82;;;5.50;81.90;;;;;;5287075;28;20035;-71
2021/05/19 08:57:52;;;;;;;9.57;8.77;;;5.60;82.70;;;;;;5289761;28;20044;-73
2021/05/19 09:00:26;;;;;;;8.40;7.70;;;5.60;82.70;;;;;;5290026;28;20039;-71
2021/05/19 09:03:09;;;;;;;9.30;8.50;;;5.70;82.10;;;;;;5292055;28;20040;-71
2021/05/19 09:05:44;;;;;;;8.82;8.13;;;5.70;82.20;;;;;;5281248;28;20031;-70
2021/05/19 09:08:19;;;;;;;8.40;7.70;;;5.70;83.40;;;;;;5297080;28;20036;-72
2021/05/19 09:11:04;;;;;;;8.35;7.65;;;5.80;81.40;;;;;;5268880;27;20032;-71
2021/05/19 09:13:48;;;;;;;8.30;7.70;;;5.70;82.20;;;;;;5288882;28;20077;-71
2021/05/19 09:16:29;;;;;;;8.15;7.45;;;5.80;82.60;;;;;;5276813;28;20024;-72
2021/05/19 09:19:09;;;;;;;8.50;7.80;;;5.80;81.60;;;;;;5286490;28;20059;-71
2021/05/19 09:21:46;;;;;;;7.90;7.30;;;5.70;81.60;;;;;;5287730;28;20039;-71
2021/05/19 09:24:38;;;;;;;7.65;7.05;;;5.70;82.00;;;;;;5304902;28;20028;-71
2021/05/19 09:27:12;;;;;;;7.75;7.15;;;5.60;81.20;;;;;;5294937;28;20044;-70
2021/05/19 09:30:04;;;;;;;7.68;7.07;;;5.60;83.40;;;;;;5308844;28;20062;-70
2021/05/19 09:32:48;;;;;;;8.23;7.60;;;5.60;84.40;;;;;;5301233;28;20027;-71
2021/05/19 09:35:20;;;;;;;8.00;7.40;;;5.70;84.60;;;;;;5293881;28;20111;-71
2021/05/19 09:37:53;;;;;;;8.10;7.50;;;5.70;84.10;;;;;;5292795;28;20024;-71
2021/05/19 09:40:25;;;;;;;8.05;7.45;;;5.80;85.00;;;;;;5304662;28;20048;-71
2021/05/19 09:43:00;;;;;;;7.82;7.22;;;6.00;84.90;;;;;;5289896;28;20047;-71
2021/05/19 09:45:40;;;;;;;8.13;7.50;;;6.10;83.60;;;;;;5300252;27;20042;-73
2021/05/19 09:48:15;;;;;;;8.20;7.50;;;6.20;83.00;;;;;;5289053;27;20044;-71
2021/05/19 09:50:47;;;;;;;8.15;7.55;;;6.30;82.30;;;;;;5289381;28;20043;-71
2021/05/19 09:53:20;;;;;;;8.15;7.53;;;6.30;82.70;;;;;;5291995;28;20044;-73
2021/05/19 09:55:51;;;;;;;8.40;7.70;;;6.30;84.70;;;;;;5286995;28;20074;-71
2021/05/19 09:58:36;;;;;;;8.30;7.60;;;6.30;84.70;;;;;;5291951;28;20039;-71
2021/05/19 10:01:09;;;;;;;8.57;7.80;;;6.30;84.80;;;;;;5281730;28;20104;-71
2021/05/19 10:03:42;;;;;;;8.15;7.55;;;6.40;84.30;;;;;;5283994;28;20060;-72
2021/05/19 10:08:50;;;;;;;9.07;8.27;;;6.50;85.80;;;;;;5282125;28;20047;-72
2021/05/19 10:11:22;;;;;;;13.30;11.93;;;6.60;85.40;;;;;;5282221;28;20474;-72
2021/05/19 10:13:55;;;;;;;13.63;12.13;;;6.80;84.80;;;;;;5285493;27;20038;-72
2021/05/19 10:16:27;;;;;;;55.60;30.67;;;7.00;84.50;;;;;;5288541;27;20047;-72
2021/05/19 10:19:00;;;;;;;27.38;19.00;;;7.00;84.60;;;;;;5283213;28;20051;-71
2021/05/19 10:21:36;;;;;;;18.83;14.98;;;7.10;83.10;;;;;;5290684;28;20083;-70
2021/05/19 10:24:14;;;;;;;19.13;10.15;;;7.20;83.10;;;;;;5295610;28;20040;-70
2021/05/19 10:27:09;;;;;;;15.02;12.93;;;7.20;81.40;;;;;;5277797;28;20043;-70
2021/05/19 10:29:57;;;;;;;11.35;10.25;;;7.30;82.60;;;;;;5287296;27;20080;-69
2021/05/19 10:32:34;;;;;;;12.15;10.95;;;7.30;82.50;;;;;;5289925;28;20050;-69
2021/05/19 10:35:29;;;;;;;8.90;8.10;;;7.30;82.70;;;;;;5276412;28;20119;-71
2021/05/19 10:38:45;;;;;;;8.80;8.00;;;7.30;83.70;;;;;;5302496;28;20746;-73
2021/05/19 10:41:38;;;;;;;8.50;7.80;;;7.10;84.60;;;;;;5288738;28;20044;-70
2021/05/19 10:44:12;;;;;;;8.68;7.97;;;7.10;83.30;;;;;;5292272;28;20031;-70
2021/05/19 10:46:53;;;;;;;10.75;9.75;;;7.00;84.80;;;;;;5290314;28;20035;-71
2021/05/19 10:50:09;;;;;;;8.10;7.40;;;7.20;85.30;;;;;;5285235;28;20062;-71
2021/05/19 10:59:00;;;;;;;8.77;8.07;;;7.60;83.80;;;;;;5269008;28;20047;-72
2021/05/19 11:01:39;;;;;;;8.85;8.13;;;7.80;83.40;;;;;;5285227;28;20043;-72
2021/05/19 11:04:17;;;;;;;8.90;8.20;;;7.90;82.50;;;;;;5290457;27;20044;-72
2021/05/19 11:07:01;;;;;;;9.40;8.70;;;8.00;82.40;;;;;;5287616;27;20101;-71
2021/05/19 11:09:40;;;;;;;10.30;9.50;;;8.10;84.00;;;;;;5283082;28;20532;-71
2021/05/19 11:12:25;;;;;;;12.02;11.02;;;8.50;83.00;;;;;;5289159;28;20043;-71
2021/05/19 11:15:03;;;;;;;9.38;8.68;;;9.00;80.30;;;;;;5288705;28;20502;-72
2021/05/19 11:20:08;;;;;;;10.60;9.73;;;9.40;82.00;;;;;;5287458;28;20032;-71
2021/05/19 11:22:40;;;;;;;12.43;11.32;;;9.60;79.70;;;;;;5287611;28;20031;-71
2021/05/19 11:25:16;;;;;;;10.90;10.00;;;9.70;80.00;;;;;;5278151;28;20040;-72
2021/05/19 11:27:58;;;;;;;10.48;9.68;;;9.70;80.40;;;;;;5279539;28;20050;-71
2021/05/19 11:30:31;;;;;;;9.52;8.82;;;9.90;81.00;;;;;;5279306;27;20611;-72
2021/05/19 11:33:15;;;;;;;9.23;8.52;;;9.70;78.50;;;;;;5281429;28;20043;-72
2021/05/19 11:35:59;;;;;;;9.90;9.10;;;9.60;75.70;;;;;;5295517;28;20669;-70
2021/05/19 11:38:33;;;;;;;9.32;8.63;;;9.50;77.70;;;;;;5300550;28;20099;-73
2021/05/19 11:41:05;;;;;;;9.55;8.75;;;9.40;75.80;;;;;;5279127;28;20063;-74
2021/05/19 11:43:37;;;;;;;9.32;8.63;;;9.30;76.40;;;;;;5262061;28;20046;-72
2021/05/19 11:46:09;;;;;;;9.32;8.52;;;9.20;76.60;;;;;;5264305;28;20462;-71
2021/05/19 11:48:48;;;;;;;9.38;8.68;;;9.10;77.70;;;;;;5284198;28;20077;-70
2021/05/19 11:51:26;;;;;;;8.93;8.23;;;9.10;76.90;;;;;;5278743;28;20666;-72
2021/05/19 11:54:03;;;;;;;9.02;8.32;;;9.00;77.80;;;;;;5283635;28;20093;-72
2021/05/19 11:56:59;;;;;;;9.25;8.43;;;8.90;79.60;;;;;;5281578;28;20123;-72
2021/05/19 11:59:35;;;;;;;8.88;8.05;;;8.90;79.20;;;;;;5276790;28;20043;-74
2021/05/19 12:02:12;;;;;;;8.50;7.80;;;8.80;77.80;;;;;;5275738;28;20058;-74
2021/05/19 12:04:44;;;;;;;8.80;8.07;;;8.70;77.20;;;;;;5274207;28;21101;-71
2021/05/19 12:07:17;;;;;;;9.13;8.32;;;8.50;77.30;;;;;;5279771;28;20036;-73
2021/05/19 12:09:52;;;;;;;8.85;8.15;;;8.40;77.00;;;;;;5280982;28;20072;-73
2021/05/19 12:12:24;;;;;;;8.80;8.10;;;8.30;75.40;;;;;;5280705;28;20058;-73
2021/05/19 12:14:58;;;;;;;8.60;7.90;;;8.00;76.20;;;;;;5281779;28;20040;-72
2021/05/19 12:17:45;;;;;;;8.13;7.43;;;7.90;76.70;;;;;;5263639;28;20067;-71
2021/05/19 12:20:22;;;;;;;9.00;8.15;;;7.80;77.50;;;;;;5277731;28;20162;-71
2021/05/19 12:22:56;;;;;;;9.75;8.77;;;7.80;78.20;;;;;;5276550;28;20565;-71
2021/05/19 12:25:30;;;;;;;11.75;10.75;;;7.80;78.60;;;;;;5247163;28;20040;-72
2021/05/19 12:28:08;;;;;;;12.52;11.18;;;7.70;78.70;;;;;;5279894;28;20055;-71
2021/05/19 12:30:48;;;;;;;13.65;12.35;;;7.70;78.90;;;;;;5279283;28;20129;-71
2021/05/19 12:33:23;;;;;;;11.63;10.52;;;7.60;79.00;;;;;;5280414;28;20043;-72
2021/05/19 12:35:55;;;;;;;11.75;10.63;;;7.60;79.50;;;;;;5276006;28;20077;-71
2021/05/19 12:38:27;;;;;;;10.40;9.40;;;7.50;79.30;;;;;;5281419;28;20052;-71
2021/05/19 12:41:01;;;;;;;9.45;8.65;;;7.50;79.60;;;;;;5272628;28;20055;-72
2021/05/19 12:43:33;;;;;;;9.45;8.57;;;7.60;79.10;;;;;;5274943;28;20523;-72
2021/05/19 12:46:14;;;;;;;8.88;8.07;;;7.60;79.30;;;;;;5279130;28;20040;-72
2021/05/19 12:49:05;;;;;;;8.57;7.82;;;7.60;79.50;;;;;;5280530;28;20506;-72
2021/05/19 12:51:58;;;;;;;8.40;7.70;;;7.60;78.70;;;;;;5278998;28;20051;-73
2021/05/19 12:54:36;;;;;;;8.82;8.13;;;7.60;79.60;;;;;;5280475;28;20448;-71
2021/05/19 12:57:11;;;;;;;8.70;8.00;;;7.60;79.80;;;;;;5281466;28;20536;-71
2021/05/19 12:59:59;;;;;;;9.18;8.48;;;7.70;79.10;;;;;;5277125;28;20036;-72
2021/05/19 13:02:37;;;;;;;9.40;8.60;;;7.80;79.30;;;;;;5280162;28;20048;-72
2021/05/19 13:05:24;;;;;;;9.32;8.63;;;7.70;79.70;;;;;;5284682;27;20043;-71
2021/05/19 13:07:56;;;;;;;9.27;8.52;;;7.70;79.20;;;;;;5283205;28;20050;-73
2021/05/19 13:10:39;;;;;;;8.98;8.23;;;7.70;80.70;;;;;;5284400;28;20084;-72
2021/05/19 13:13:40;;;;;;;9.43;8.63;;;7.70;80.30;;;;;;5284409;28;20032;-72
2021/05/19 13:16:19;;;;;;;9.70;8.90;;;7.70;81.20;;;;;;5282980;28;20044;-73
2021/05/19 13:18:56;;;;;;;10.52;9.63;;;7.70;81.20;;;;;;5286056;28;20047;-73
2021/05/19 13:21:48;;;;;;;9.90;9.10;;;7.70;81.30;;;;;;5283277;28;20032;-72
2021/05/19 13:24:21;;;;;;;11.00;9.90;;;7.60;81.50;;;;;;5277193;28;20119;-72
2021/05/19 13:26:56;;;;;;;10.23;9.43;;;7.60;80.70;;;;;;5283356;27;20043;-72
2021/05/19 13:29:29;;;;;;;9.13;8.43;;;7.50;80.30;;;;;;5283088;28;20563;-73
2021/05/19 13:37:20;;;;;;;9.00;8.30;;;7.60;79.60;;;;;;5282406;28;20120;-72
2021/05/19 13:39:53;;;;;;;9.07;8.38;;;7.60;81.10;;;;;;5282860;28;20051;-71
2021/05/19 13:42:25;;;;;;;9.63;8.82;;;7.70;80.30;;;;;;5276774;28;20036;-71
2021/05/19 13:44:57;;;;;;;9.32;8.63;;;7.90;79.20;;;;;;5281386;28;20066;-72
2021/05/19 13:47:29;;;;;;;9.98;9.27;;;8.30;79.80;;;;;;5274512;28;20044;-72
2021/05/19 13:50:04;;;;;;;10.20;9.40;;;8.80;79.80;;;;;;5279651;28;20594;-73